createdAt,value
2019-04-21T00:00:37.415Z,-1.54
2019-04-21T00:01:41.469Z,-1.58
2019-04-21T00:02:39.149Z,-1.49
2019-04-21T00:03:45.619Z,-1.58
2019-04-21T00:04:48.220Z,-1.58
2019-04-21T00:05:59.678Z,-1.57
2019-04-21T00:06:58.806Z,-1.61
2019-04-21T00:08:10.870Z,-1.67
2019-04-21T00:08:57.942Z,-1.65
2019-04-21T00:10:02.613Z,-1.58
2019-04-21T00:10:57.854Z,-1.62
2019-04-21T00:11:57.169Z,-1.55
2019-04-21T00:12:52.300Z,-1.61
2019-04-21T00:13:46.776Z,-1.62
2019-04-21T00:14:46.260Z,-1.61
2019-04-21T00:15:40.717Z,-1.61
2019-04-21T00:16:44.138Z,-1.61
2019-04-21T00:17:36.891Z,-1.59
2019-04-21T00:18:42.980Z,-1.61
2019-04-21T00:19:38.953Z,-1.72
2019-04-21T00:20:42.461Z,-1.67
2019-04-21T00:21:43.510Z,-1.73
2019-04-21T00:22:47.724Z,-1.76
2019-04-21T00:23:54.071Z,-1.72
2019-04-21T00:24:53.453Z,-1.82
2019-04-21T00:25:50.281Z,-1.85
2019-04-21T00:26:55.679Z,-1.96
2019-04-21T00:27:50.111Z,-1.85
2019-04-21T00:29:05.129Z,-1.93
2019-04-21T00:29:58.023Z,-1.91
2019-04-21T00:30:56.872Z,-1.93
2019-04-21T00:31:51.390Z,-1.98
2019-04-21T00:32:50.278Z,-1.97
2019-04-21T00:33:40.983Z,-2.00
2019-04-21T00:34:36.347Z,-2.01
2019-04-21T00:35:43.159Z,-2.08
2019-04-21T00:36:47.118Z,-2.06
2019-04-21T00:37:53.379Z,-2.04
2019-04-21T00:39:09.598Z,-2.09
2019-04-21T00:40:06.148Z,-2.03
2019-04-21T00:41:00.516Z,-2.18
2019-04-21T00:41:57.306Z,-2.09
2019-04-21T00:42:56.971Z,-2.03
2019-04-21T00:43:49.451Z,-2.00
2019-04-21T00:44:54.117Z,-2.12
2019-04-21T00:45:48.104Z,-2.15
2019-04-21T00:46:51.650Z,-2.16
2019-04-21T00:47:58.764Z,-2.21
2019-04-21T00:49:00.361Z,-2.33
2019-04-21T00:50:02.249Z,-2.37
2019-04-21T00:51:14.770Z,-2.37
2019-04-21T00:52:03.935Z,-2.34
2019-04-21T00:53:19.600Z,-2.40
2019-04-21T00:54:06.859Z,-2.30
2019-04-21T00:55:08.821Z,-2.40
2019-04-21T00:56:07.246Z,-2.30
2019-04-21T00:57:04.351Z,-2.38
2019-04-21T00:59:01.932Z,-2.37
2019-04-21T01:00:01.225Z,-2.37
2019-04-21T01:00:57.984Z,-2.40
2019-04-21T01:01:55.524Z,-2.43
2019-04-21T01:03:17.139Z,-2.41
2019-04-21T01:03:58.119Z,-2.35
2019-04-21T01:05:00.041Z,-2.38
2019-04-21T01:06:00.009Z,-2.35
2019-04-21T01:07:05.582Z,-2.49
2019-04-21T01:07:50.343Z,-2.46
2019-04-21T01:08:55.273Z,-2.38
2019-04-21T01:09:48.888Z,-2.46
2019-04-21T01:10:51.469Z,-2.48
2019-04-21T01:12:01.470Z,-2.34
2019-04-21T01:12:54.756Z,-2.37
2019-04-21T01:14:00.233Z,-2.41
2019-04-21T01:15:07.830Z,-2.43
2019-04-21T01:15:59.564Z,-2.48
2019-04-21T01:17:00.749Z,-2.45
2019-04-21T01:17:59.364Z,-2.46
2019-04-21T01:18:55.019Z,-2.48
2019-04-21T01:19:51.366Z,-2.35
2019-04-21T01:20:35.503Z,-2.37
2019-04-21T01:21:34.507Z,-2.41
2019-04-21T01:22:34.482Z,-2.34
2019-04-21T01:23:35.761Z,-2.45
2019-04-21T01:24:39.573Z,-2.33
2019-04-21T01:25:41.560Z,-2.26
2019-04-21T01:26:48.256Z,-2.30
2019-04-21T01:28:04.975Z,-2.35
2019-04-21T01:28:51.143Z,-2.38
2019-04-21T01:29:54.002Z,-2.43
2019-04-21T01:30:56.991Z,-2.43
2019-04-21T01:31:57.299Z,-2.45
2019-04-21T01:32:53.232Z,-2.49
2019-04-21T01:33:59.247Z,-2.51
2019-04-21T01:34:58.203Z,-2.49
2019-04-21T01:35:55.487Z,-2.52
2019-04-21T01:36:54.707Z,-2.58
2019-04-21T01:37:57.599Z,-2.63
2019-04-21T01:39:02.134Z,-2.66
2019-04-21T01:40:02.641Z,-2.64
2019-04-21T01:40:59.128Z,-2.70
2019-04-21T01:41:57.334Z,-2.59
2019-04-21T01:42:56.302Z,-2.59
2019-04-21T01:44:00.763Z,-2.67
2019-04-21T01:44:52.260Z,-2.56
2019-04-21T01:45:56.714Z,-2.69
2019-04-21T01:46:51.985Z,-2.74
2019-04-21T01:47:50.956Z,-2.69
2019-04-21T01:48:49.373Z,-2.70
2019-04-21T01:49:47.483Z,-2.70
2019-04-21T01:50:51.255Z,-2.77
2019-04-21T01:52:02.834Z,-2.70
2019-04-21T01:52:55.967Z,-2.67
2019-04-21T01:53:56.523Z,-2.61
2019-04-21T01:55:54.775Z,-2.58
2019-04-21T01:56:57.014Z,-2.66
2019-04-21T01:57:56.028Z,-2.67
2019-04-21T01:58:46.163Z,-2.70
2019-04-21T01:59:48.829Z,-2.61
2019-04-21T02:00:53.779Z,-2.74
2019-04-21T02:01:54.154Z,-2.76
2019-04-21T02:03:02.293Z,-2.74
2019-04-21T02:03:57.017Z,-2.69
2019-04-21T02:05:03.437Z,-2.77
2019-04-21T02:05:59.975Z,-2.80
2019-04-21T02:06:57.439Z,-2.82
2019-04-21T02:07:58.059Z,-2.80
2019-04-21T02:08:56.272Z,-2.92
2019-04-21T02:10:00.488Z,-2.82
2019-04-21T02:11:00.590Z,-2.79
2019-04-21T02:12:05.832Z,-2.82
2019-04-21T02:12:58.279Z,-2.79
2019-04-21T02:14:05.411Z,-2.79
2019-04-21T02:15:04.546Z,-2.80
2019-04-21T02:16:08.394Z,-2.85
2019-04-21T02:17:56.340Z,-2.77
2019-04-21T02:18:54.683Z,-2.84
2019-04-21T02:19:49.142Z,-2.87
2019-04-21T02:20:47.617Z,-2.91
2019-04-21T02:21:47.811Z,-2.90
2019-04-21T02:23:12.889Z,-2.91
2019-04-21T02:24:01.914Z,-2.98
2019-04-21T02:25:00.960Z,-2.79
2019-04-21T02:26:01.889Z,-2.87
2019-04-21T02:27:00.495Z,-2.92
2019-04-21T02:28:00.812Z,-2.88
2019-04-21T02:29:03.273Z,-2.98
2019-04-21T02:30:02.714Z,-3.01
2019-04-21T02:31:17.645Z,-2.95
2019-04-21T02:33:28.015Z,-3.01
2019-04-21T02:34:17.270Z,-2.92
2019-04-21T02:35:18.720Z,-2.94
2019-04-21T02:36:26.624Z,-2.97
2019-04-21T02:37:28.658Z,-2.94
2019-04-21T02:40:21.518Z,-2.97
2019-04-21T02:40:57.872Z,-2.80
2019-04-21T02:42:05.311Z,-2.85
2019-04-21T02:45:09.466Z,-2.85
2019-04-21T02:46:12.523Z,-2.98
2019-04-21T02:46:54.466Z,-3.02
2019-04-21T02:49:11.255Z,-2.94
2019-04-21T02:51:03.971Z,-2.95
2019-04-21T02:52:13.382Z,-3.08
2019-04-21T02:53:16.100Z,-3.02
2019-04-21T02:55:17.999Z,-3.09
2019-04-21T02:56:14.507Z,-3.06
2019-04-21T02:57:09.577Z,-3.02
2019-04-21T02:58:06.313Z,-3.03
2019-04-21T02:59:11.836Z,-3.05
2019-04-21T03:00:06.972Z,-3.05
2019-04-21T03:01:05.164Z,-3.10
2019-04-21T03:02:04.537Z,-3.02
2019-04-21T03:03:03.918Z,-2.98
2019-04-21T03:04:11.300Z,-3.08
2019-04-21T03:05:13.421Z,-2.94
2019-04-21T03:07:14.963Z,-2.82
2019-04-21T03:08:05.166Z,-2.85
2019-04-21T03:09:09.215Z,-2.82
2019-04-21T03:10:12.414Z,-2.76
2019-04-21T03:11:14.621Z,-2.82
2019-04-21T03:12:14.920Z,-2.82
2019-04-21T03:13:05.670Z,-2.84
2019-04-21T03:14:30.293Z,-2.94
2019-04-21T03:15:12.133Z,-2.82
2019-04-21T03:17:09.043Z,-2.82
2019-04-21T03:18:08.205Z,-2.85
2019-04-21T03:19:06.764Z,-2.88
2019-04-21T03:20:19.038Z,-2.87
2019-04-21T03:21:09.331Z,-2.77
2019-04-21T03:22:08.069Z,-2.79
2019-04-21T03:23:07.781Z,-2.67
2019-04-21T03:26:12.398Z,-2.74
2019-04-21T03:27:25.971Z,-2.72
2019-04-21T03:28:11.945Z,-2.73
2019-04-21T03:29:03.601Z,-2.72
2019-04-21T03:30:14.204Z,-2.73
2019-04-21T03:31:36.144Z,-2.66
2019-04-21T03:32:40.169Z,-2.61
2019-04-21T03:33:53.257Z,-2.58
2019-04-21T03:36:33.543Z,-2.59
2019-04-21T03:38:09.813Z,-2.54
2019-04-21T03:39:18.367Z,-2.46
2019-04-21T03:41:04.173Z,-2.48
2019-04-21T03:42:19.976Z,-2.49
2019-04-21T03:43:04.462Z,-2.52
2019-04-21T03:44:10.000Z,-2.48
2019-04-21T03:45:03.640Z,-2.46
2019-04-21T03:45:58.197Z,-2.37
2019-04-21T03:47:08.371Z,-2.43
2019-04-21T03:48:13.847Z,-2.49
2019-04-21T03:49:11.953Z,-2.49
2019-04-21T03:50:22.397Z,-2.40
2019-04-21T03:51:07.143Z,-2.41
2019-04-21T03:53:02.960Z,-2.37
2019-04-21T03:54:00.697Z,-2.34
2019-04-21T03:55:28.150Z,-2.30
2019-04-21T04:00:09.374Z,-2.15
2019-04-21T04:03:27.436Z,-2.16
2019-04-21T04:04:14.977Z,-2.00
2019-04-21T04:05:10.936Z,-2.00
2019-04-21T04:07:11.117Z,-1.93
2019-04-21T04:08:09.175Z,-2.03
2019-04-21T04:09:11.157Z,-1.90
2019-04-21T04:11:15.170Z,-1.94
2019-04-21T04:13:09.590Z,-1.75
2019-04-21T04:14:26.761Z,-1.69
2019-04-21T04:15:03.024Z,-1.58
2019-04-21T04:16:06.943Z,-1.54
2019-04-21T04:18:07.663Z,-1.40
2019-04-21T04:19:11.564Z,-1.49
2019-04-21T04:20:03.959Z,-1.40
2019-04-21T04:22:20.742Z,-1.29
2019-04-21T04:24:15.090Z,-1.23
2019-04-21T04:25:04.955Z,-1.16
2019-04-21T04:26:06.781Z,-1.04
2019-04-21T04:27:12.723Z,-1.00
2019-04-21T04:28:14.247Z,-0.90
2019-04-21T04:29:12.153Z,-0.94
2019-04-21T04:30:07.655Z,-0.82
2019-04-21T04:31:06.767Z,-0.79
2019-04-21T04:32:00.930Z,-0.66
2019-04-21T04:33:12.343Z,-0.61
2019-04-21T04:35:25.920Z,-0.43
2019-04-21T04:36:15.648Z,-0.31
2019-04-21T04:37:12.445Z,-0.20
2019-04-21T04:38:07.013Z,-0.16
2019-04-21T04:39:16.353Z,-0.03
2019-04-21T04:41:12.043Z,0.15
2019-04-21T04:42:16.123Z,0.26
2019-04-21T04:44:35.017Z,0.41
2019-04-21T04:45:15.785Z,0.55
2019-04-21T04:45:59.034Z,0.53
2019-04-21T04:47:10.393Z,0.69
2019-04-21T04:48:07.505Z,0.67
2019-04-21T04:49:32.115Z,0.73
2019-04-21T04:50:06.770Z,0.76
2019-04-21T04:51:01.986Z,0.84
2019-04-21T04:52:31.741Z,0.88
2019-04-21T04:53:07.700Z,0.87
2019-04-21T04:53:50.787Z,0.94
2019-04-21T04:55:03.855Z,0.85
2019-04-21T04:56:10.835Z,0.90
2019-04-21T04:57:21.780Z,1.02
2019-04-21T04:58:16.070Z,0.99
2019-04-21T04:59:23.106Z,1.06
2019-04-21T05:00:15.700Z,1.09
2019-04-21T05:01:13.779Z,0.99
2019-04-21T05:02:14.317Z,1.05
2019-04-21T05:03:01.250Z,1.00
2019-04-21T05:05:13.888Z,1.02
2019-04-21T05:06:10.051Z,1.03
2019-04-21T05:08:23.969Z,1.06
2019-04-21T05:09:58.911Z,1.20
2019-04-21T05:11:16.111Z,1.17
2019-04-21T05:12:07.728Z,1.26
2019-04-21T05:13:04.306Z,1.21
2019-04-21T05:14:06.221Z,1.31
2019-04-21T05:15:07.775Z,1.35
2019-04-21T05:16:02.524Z,1.35
2019-04-21T05:18:13.395Z,1.35
2019-04-21T05:21:12.967Z,1.45
2019-04-21T05:22:04.954Z,1.53
2019-04-21T05:22:54.503Z,1.53
2019-04-21T05:23:51.161Z,1.59
2019-04-21T05:24:49.254Z,1.62
2019-04-21T05:25:45.655Z,1.63
2019-04-21T05:26:49.307Z,1.66
2019-04-21T05:27:52.553Z,1.69
2019-04-21T05:28:49.809Z,1.69
2019-04-21T05:29:58.742Z,1.74
2019-04-21T05:30:58.454Z,1.66
2019-04-21T05:31:56.152Z,1.67
2019-04-21T05:33:02.730Z,1.74
2019-04-21T05:33:54.270Z,1.81
2019-04-21T05:34:55.782Z,1.78
2019-04-21T05:35:49.495Z,1.77
2019-04-21T05:36:52.062Z,1.87
2019-04-21T05:37:58.652Z,1.91
2019-04-21T05:38:50.287Z,1.92
2019-04-21T05:39:51.251Z,2.01
2019-04-21T05:40:43.702Z,1.92
2019-04-21T05:41:43.001Z,1.95
2019-04-21T05:42:49.550Z,1.99
2019-04-21T05:44:01.919Z,1.92
2019-04-21T05:45:01.615Z,1.92
2019-04-21T05:45:58.353Z,2.07
2019-04-21T05:47:07.897Z,2.11
2019-04-21T05:48:09.540Z,2.17
2019-04-21T05:48:52.145Z,2.12
2019-04-21T05:50:53.757Z,2.32
2019-04-21T05:51:49.876Z,2.35
2019-04-21T05:52:51.993Z,2.35
2019-04-21T05:53:56.982Z,2.43
2019-04-21T05:54:57.277Z,2.48
2019-04-21T05:55:56.859Z,2.47
2019-04-21T05:56:55.433Z,2.50
2019-04-21T05:57:54.312Z,2.58
2019-04-21T05:58:48.069Z,2.63
2019-04-21T05:59:53.264Z,2.63
2019-04-21T06:01:15.364Z,2.66
2019-04-21T06:02:02.223Z,2.73
2019-04-21T06:02:57.724Z,2.69
2019-04-21T06:03:57.317Z,2.84
2019-04-21T06:06:00.368Z,2.89
2019-04-21T06:06:56.782Z,2.89
2019-04-21T06:07:54.802Z,3.02
2019-04-21T06:08:55.974Z,3.07
2019-04-21T06:09:58.224Z,3.14
2019-04-21T06:10:52.376Z,3.08
2019-04-21T06:11:59.833Z,3.14
2019-04-21T06:12:59.270Z,3.09
2019-04-21T06:14:54.388Z,3.20
2019-04-21T06:15:57.963Z,3.23
2019-04-21T06:16:55.641Z,3.30
2019-04-21T06:17:57.934Z,3.27
2019-04-21T06:19:55.696Z,3.46
2019-04-21T06:20:59.865Z,3.52
2019-04-21T06:21:51.081Z,3.49
2019-04-21T06:22:56.625Z,3.54
2019-04-21T06:23:49.725Z,3.59
2019-04-21T06:25:24.336Z,3.64
2019-04-21T06:27:57.199Z,3.73
2019-04-21T06:28:59.571Z,3.67
2019-04-21T06:29:55.906Z,3.76
2019-04-21T06:31:08.088Z,3.80
2019-04-21T06:32:20.335Z,3.85
2019-04-21T06:33:04.979Z,3.96
2019-04-21T06:34:08.071Z,3.98
2019-04-21T06:37:05.837Z,4.10
2019-04-21T06:37:50.561Z,4.17
2019-04-21T06:40:07.686Z,4.20
2019-04-21T06:40:56.158Z,4.31
2019-04-21T06:41:55.737Z,4.26
2019-04-21T06:43:08.000Z,4.35
2019-04-21T06:45:56.880Z,4.45
2019-04-21T06:46:53.204Z,4.45
2019-04-21T06:48:01.103Z,4.49
2019-04-21T06:49:14.308Z,4.56
2019-04-21T06:49:53.743Z,4.67
2019-04-21T06:51:04.911Z,4.67
2019-04-21T06:52:00.230Z,4.72
2019-04-21T06:52:54.955Z,4.69
2019-04-21T06:53:59.326Z,4.79
2019-04-21T06:54:57.190Z,4.82
2019-04-21T06:55:51.859Z,4.91
2019-04-21T06:56:51.272Z,4.93
2019-04-21T06:57:51.928Z,4.88
2019-04-21T06:58:50.249Z,4.91
2019-04-21T07:00:56.177Z,4.88
2019-04-21T07:02:02.841Z,4.98
2019-04-21T07:03:02.697Z,4.91
2019-04-21T07:04:59.008Z,5.00
2019-04-21T07:05:58.947Z,5.06
2019-04-21T07:06:56.333Z,5.03
2019-04-21T07:08:13.083Z,5.01
2019-04-21T07:09:02.513Z,5.09
2019-04-21T07:09:57.161Z,5.03
2019-04-21T07:11:53.821Z,5.21
2019-04-21T07:12:51.348Z,5.19
2019-04-21T07:14:03.125Z,5.36
2019-04-21T07:14:53.245Z,5.27
2019-04-21T07:16:00.472Z,5.33
2019-04-21T07:16:57.866Z,5.39
2019-04-21T07:17:54.036Z,5.33
2019-04-21T07:19:03.964Z,5.44
2019-04-21T07:19:55.795Z,5.40
2019-04-21T07:20:53.124Z,5.50
2019-04-21T07:21:54.343Z,5.47
2019-04-21T07:22:54.201Z,5.58
2019-04-21T07:24:01.998Z,5.62
2019-04-21T07:24:58.984Z,5.57
2019-04-21T07:25:52.556Z,5.61
2019-04-21T07:26:59.623Z,5.58
2019-04-21T07:27:52.055Z,5.59
2019-04-21T07:29:01.901Z,5.69
2019-04-21T07:30:59.087Z,5.79
2019-04-21T07:31:58.969Z,5.76
2019-04-21T07:32:59.442Z,5.82
2019-04-21T07:35:00.587Z,5.88
2019-04-21T07:36:07.679Z,5.84
2019-04-21T07:36:54.879Z,5.91
2019-04-21T07:37:53.605Z,5.93
2019-04-21T07:38:50.392Z,5.82
2019-04-21T07:39:49.374Z,5.87
2019-04-21T07:40:45.868Z,5.88
2019-04-21T07:41:49.695Z,5.90
2019-04-21T07:42:47.797Z,5.87
2019-04-21T07:43:44.018Z,5.88
2019-04-21T07:44:46.043Z,5.93
2019-04-21T07:45:45.857Z,5.88
2019-04-21T07:46:45.323Z,5.94
2019-04-21T07:47:51.776Z,5.90
2019-04-21T07:48:49.770Z,6.05
2019-04-21T07:49:59.006Z,5.98
2019-04-21T07:50:52.078Z,6.03
2019-04-21T07:52:01.405Z,6.05
2019-04-21T07:53:55.355Z,6.21
2019-04-21T07:54:57.415Z,6.27
2019-04-21T07:55:32.635Z,6.32
2019-04-21T07:56:36.259Z,6.38
2019-04-21T07:57:46.833Z,6.45
2019-04-21T07:59:00.165Z,6.46
2019-04-21T08:00:56.319Z,6.56
2019-04-21T08:01:58.908Z,6.57
2019-04-21T08:02:53.959Z,6.55
2019-04-21T08:03:56.960Z,6.70
2019-04-21T08:05:52.554Z,6.71
2019-04-21T08:06:52.024Z,6.82
2019-04-21T08:08:08.135Z,6.85
2019-04-21T08:08:52.924Z,6.83
2019-04-21T08:09:51.339Z,6.83
2019-04-21T08:10:50.925Z,6.89
2019-04-21T08:11:48.712Z,6.83
2019-04-21T08:12:49.407Z,6.86
2019-04-21T08:13:53.555Z,6.83
2019-04-21T08:14:55.711Z,6.86
2019-04-21T08:15:51.000Z,6.81
2019-04-21T08:16:57.310Z,6.85
2019-04-21T08:18:04.726Z,6.83
2019-04-21T08:18:52.185Z,6.81
2019-04-21T08:19:49.801Z,6.96
2019-04-21T08:20:47.978Z,6.89
2019-04-21T08:22:00.078Z,6.96
2019-04-21T08:22:51.620Z,7.06
2019-04-21T08:23:48.376Z,7.01
2019-04-21T08:24:52.126Z,7.00
2019-04-21T08:26:03.688Z,7.07
2019-04-21T08:26:51.455Z,7.10
2019-04-21T08:28:53.734Z,7.15
2019-04-21T08:29:51.883Z,7.13
2019-04-21T08:30:47.341Z,7.13
2019-04-21T08:31:56.485Z,7.11
2019-04-21T08:33:56.079Z,7.11
2019-04-21T08:36:52.761Z,7.33
2019-04-21T08:37:51.775Z,7.34
2019-04-21T08:38:54.034Z,7.34
2019-04-21T08:40:05.109Z,7.37
2019-04-21T08:40:49.162Z,7.49
2019-04-21T08:41:51.221Z,7.43
2019-04-21T08:42:52.190Z,7.46
2019-04-21T08:43:51.369Z,7.49
